sensor_id;sensor_type;location;lat;lon;timestamp;P1;durP1;ratioP1;P2;durP2;ratioP2
62056;SDS011;48016;50.284;18.860;2023-11-19T00:01:01;68.50;;;35.50;;
62056;SDS011;48016;50.284;18.860;2023-11-19T00:03:48;68.60;;;35.20;;
62056;SDS011;48016;50.284;18.860;2023-11-19T00:06:15;67.80;;;35.10;;
62056;SDS011;48016;50.284;18.860;2023-11-19T00:08:43;67.90;;;33.30;;
62056;SDS011;48016;50.284;18.860;2023-11-19T00:11:12;70.20;;;34.50;;
62056;SDS011;48016;50.284;18.860;2023-11-19T00:13:41;72.40;;;34.30;;
62056;SDS011;48016;50.284;18.860;2023-11-19T00:16:08;72.80;;;34.80;;
62056;SDS011;48016;50.284;18.860;2023-11-19T00:21:02;69.40;;;34.60;;
62056;SDS011;48016;50.284;18.860;2023-11-19T00:23:29;61.80;;;32.80;;
62056;SDS011;48016;50.284;18.860;2023-11-19T00:25:55;71.60;;;33.90;;
62056;SDS011;48016;50.284;18.860;2023-11-19T00:28:22;60.20;;;31.60;;
62056;SDS011;48016;50.284;18.860;2023-11-19T00:30:50;66.10;;;34.70;;
62056;SDS011;48016;50.284;18.860;2023-11-19T00:33:16;64.30;;;30.80;;
62056;SDS011;48016;50.284;18.860;2023-11-19T00:35:43;63.10;;;30.40;;
62056;SDS011;48016;50.284;18.860;2023-11-19T00:38:10;64.50;;;32.20;;
62056;SDS011;48016;50.284;18.860;2023-11-19T00:40:36;67.40;;;32.60;;
62056;SDS011;48016;50.284;18.860;2023-11-19T00:43:03;62.30;;;31.80;;
62056;SDS011;48016;50.284;18.860;2023-11-19T00:45:30;61.00;;;30.50;;
62056;SDS011;48016;50.284;18.860;2023-11-19T00:47:56;60.30;;;32.00;;
62056;SDS011;48016;50.284;18.860;2023-11-19T00:50:25;60.20;;;31.70;;
62056;SDS011;48016;50.284;18.860;2023-11-19T00:52:52;57.00;;;29.10;;
62056;SDS011;48016;50.284;18.860;2023-11-19T00:55:18;57.00;;;30.70;;
62056;SDS011;48016;50.284;18.860;2023-11-19T00:57:45;68.30;;;35.40;;
62056;SDS011;48016;50.284;18.860;2023-11-19T01:00:12;73.40;;;35.50;;
62056;SDS011;48016;50.284;18.860;2023-11-19T01:02:45;74.70;;;37.00;;
62056;SDS011;48016;50.284;18.860;2023-11-19T01:05:12;75.80;;;36.70;;
62056;SDS011;48016;50.284;18.860;2023-11-19T01:07:42;74.20;;;35.90;;
62056;SDS011;48016;50.284;18.860;2023-11-19T01:10:09;73.10;;;37.10;;
62056;SDS011;48016;50.284;18.860;2023-11-19T01:12:36;75.20;;;37.60;;
62056;SDS011;48016;50.284;18.860;2023-11-19T01:17:31;58.70;;;30.40;;
62056;SDS011;48016;50.284;18.860;2023-11-19T01:19:58;61.00;;;30.70;;
62056;SDS011;48016;50.284;18.860;2023-11-19T01:22:24;59.80;;;31.40;;
62056;SDS011;48016;50.284;18.860;2023-11-19T01:24:51;62.40;;;32.20;;
62056;SDS011;48016;50.284;18.860;2023-11-19T01:27:18;59.60;;;32.00;;
62056;SDS011;48016;50.284;18.860;2023-11-19T01:29:44;59.10;;;31.70;;
62056;SDS011;48016;50.284;18.860;2023-11-19T01:32:11;58.90;;;31.00;;
62056;SDS011;48016;50.284;18.860;2023-11-19T01:34:38;56.30;;;30.60;;
62056;SDS011;48016;50.284;18.860;2023-11-19T01:37:05;55.40;;;28.30;;
62056;SDS011;48016;50.284;18.860;2023-11-19T01:39:31;49.10;;;28.30;;
62056;SDS011;48016;50.284;18.860;2023-11-19T01:41:58;47.00;;;26.50;;
62056;SDS011;48016;50.284;18.860;2023-11-19T01:44:25;48.40;;;26.50;;
62056;SDS011;48016;50.284;18.860;2023-11-19T01:46:51;58.50;;;29.40;;
62056;SDS011;48016;50.284;18.860;2023-11-19T01:49:18;46.30;;;26.10;;
62056;SDS011;48016;50.284;18.860;2023-11-19T01:51:46;49.00;;;26.10;;
62056;SDS011;48016;50.284;18.860;2023-11-19T01:54:14;41.60;;;23.20;;
62056;SDS011;48016;50.284;18.860;2023-11-19T01:56:41;54.50;;;25.90;;
62056;SDS011;48016;50.284;18.860;2023-11-19T01:59:09;48.80;;;26.40;;
62056;SDS011;48016;50.284;18.860;2023-11-19T02:01:37;43.80;;;24.40;;
62056;SDS011;48016;50.284;18.860;2023-11-19T02:04:06;46.40;;;25.90;;
62056;SDS011;48016;50.284;18.860;2023-11-19T02:06:34;47.80;;;25.50;;
62056;SDS011;48016;50.284;18.860;2023-11-19T02:09:03;46.40;;;24.10;;
62056;SDS011;48016;50.284;18.860;2023-11-19T02:11:34;44.00;;;24.80;;
62056;SDS011;48016;50.284;18.860;2023-11-19T02:14:01;42.30;;;23.20;;
62056;SDS011;48016;50.284;18.860;2023-11-19T02:16:29;41.90;;;22.50;;
62056;SDS011;48016;50.284;18.860;2023-11-19T02:18:56;40.90;;;23.10;;
62056;SDS011;48016;50.284;18.860;2023-11-19T02:21:22;45.90;;;25.00;;
62056;SDS011;48016;50.284;18.860;2023-11-19T02:23:49;46.30;;;24.80;;
62056;SDS011;48016;50.284;18.860;2023-11-19T02:28:52;44.40;;;25.70;;
62056;SDS011;48016;50.284;18.860;2023-11-19T02:31:18;48.90;;;25.60;;
62056;SDS011;48016;50.284;18.860;2023-11-19T02:33:46;53.90;;;28.40;;
62056;SDS011;48016;50.284;18.860;2023-11-19T02:36:12;53.30;;;28.40;;
62056;SDS011;48016;50.284;18.860;2023-11-19T02:38:39;52.60;;;27.20;;
62056;SDS011;48016;50.284;18.860;2023-11-19T02:41:06;51.20;;;26.80;;
62056;SDS011;48016;50.284;18.860;2023-11-19T02:43:33;54.30;;;30.30;;
62056;SDS011;48016;50.284;18.860;2023-11-19T02:46:01;44.10;;;24.60;;
62056;SDS011;48016;50.284;18.860;2023-11-19T02:48:28;43.20;;;23.80;;
62056;SDS011;48016;50.284;18.860;2023-11-19T02:50:54;38.20;;;22.50;;
62056;SDS011;48016;50.284;18.860;2023-11-19T02:53:21;41.40;;;22.80;;
62056;SDS011;48016;50.284;18.860;2023-11-19T02:55:48;35.60;;;20.40;;
62056;SDS011;48016;50.284;18.860;2023-11-19T03:00:46;38.80;;;21.80;;
62056;SDS011;48016;50.284;18.860;2023-11-19T03:03:20;39.90;;;21.50;;
62056;SDS011;48016;50.284;18.860;2023-11-19T03:05:49;39.40;;;21.10;;
62056;SDS011;48016;50.284;18.860;2023-11-19T03:08:15;38.10;;;22.00;;
62056;SDS011;48016;50.284;18.860;2023-11-19T03:10:42;38.80;;;24.40;;
62056;SDS011;48016;50.284;18.860;2023-11-19T03:13:11;42.60;;;24.70;;
62056;SDS011;48016;50.284;18.860;2023-11-19T03:15:41;46.00;;;24.50;;
62056;SDS011;48016;50.284;18.860;2023-11-19T03:18:08;42.50;;;25.80;;
62056;SDS011;48016;50.284;18.860;2023-11-19T03:20:34;44.10;;;25.40;;
62056;SDS011;48016;50.284;18.860;2023-11-19T03:23:01;50.60;;;26.80;;
62056;SDS011;48016;50.284;18.860;2023-11-19T03:25:27;47.10;;;27.30;;
62056;SDS011;48016;50.284;18.860;2023-11-19T03:27:59;45.70;;;26.40;;
62056;SDS011;48016;50.284;18.860;2023-11-19T03:30:30;43.00;;;23.70;;
62056;SDS011;48016;50.284;18.860;2023-11-19T03:35:24;46.00;;;24.10;;
62056;SDS011;48016;50.284;18.860;2023-11-19T03:37:50;47.10;;;26.40;;
62056;SDS011;48016;50.284;18.860;2023-11-19T03:40:18;46.30;;;26.50;;
62056;SDS011;48016;50.284;18.860;2023-11-19T03:42:47;43.20;;;25.20;;
62056;SDS011;48016;50.284;18.860;2023-11-19T03:45:14;50.90;;;28.40;;
62056;SDS011;48016;50.284;18.860;2023-11-19T03:47:42;49.40;;;27.90;;
62056;SDS011;48016;50.284;18.860;2023-11-19T03:50:08;49.70;;;28.80;;
62056;SDS011;48016;50.284;18.860;2023-11-19T03:52:35;48.00;;;28.50;;
62056;SDS011;48016;50.284;18.860;2023-11-19T03:55:02;47.00;;;28.00;;
62056;SDS011;48016;50.284;18.860;2023-11-19T03:57:31;51.80;;;30.10;;
62056;SDS011;48016;50.284;18.860;2023-11-19T03:59:58;57.80;;;32.40;;
62056;SDS011;48016;50.284;18.860;2023-11-19T04:02:25;54.50;;;31.30;;
62056;SDS011;48016;50.284;18.860;2023-11-19T04:04:54;55.80;;;30.60;;
62056;SDS011;48016;50.284;18.860;2023-11-19T04:07:21;48.90;;;29.30;;
62056;SDS011;48016;50.284;18.860;2023-11-19T04:09:48;51.90;;;28.50;;
62056;SDS011;48016;50.284;18.860;2023-11-19T04:12:14;49.80;;;27.90;;
62056;SDS011;48016;50.284;18.860;2023-11-19T04:14:41;47.00;;;26.80;;
62056;SDS011;48016;50.284;18.860;2023-11-19T04:17:08;48.40;;;26.30;;
62056;SDS011;48016;50.284;18.860;2023-11-19T04:19:35;45.40;;;26.00;;
62056;SDS011;48016;50.284;18.860;2023-11-19T04:22:01;44.30;;;25.60;;
62056;SDS011;48016;50.284;18.860;2023-11-19T04:24:28;40.10;;;23.90;;
62056;SDS011;48016;50.284;18.860;2023-11-19T04:26:55;45.10;;;26.50;;
62056;SDS011;48016;50.284;18.860;2023-11-19T04:29:21;44.90;;;26.00;;
62056;SDS011;48016;50.284;18.860;2023-11-19T04:31:48;43.00;;;27.40;;
62056;SDS011;48016;50.284;18.860;2023-11-19T04:34:14;43.50;;;24.10;;
62056;SDS011;48016;50.284;18.860;2023-11-19T04:36:42;38.10;;;23.60;;
62056;SDS011;48016;50.284;18.860;2023-11-19T04:39:10;42.90;;;25.30;;
62056;SDS011;48016;50.284;18.860;2023-11-19T04:41:50;35.20;;;21.30;;
62056;SDS011;48016;50.284;18.860;2023-11-19T04:44:20;35.20;;;20.30;;
62056;SDS011;48016;50.284;18.860;2023-11-19T04:46:47;36.00;;;20.70;;
62056;SDS011;48016;50.284;18.860;2023-11-19T04:49:14;42.60;;;24.90;;
62056;SDS011;48016;50.284;18.860;2023-11-19T04:51:41;42.50;;;27.10;;
62056;SDS011;48016;50.284;18.860;2023-11-19T04:54:10;45.50;;;24.40;;
62056;SDS011;48016;50.284;18.860;2023-11-19T04:56:37;40.30;;;24.90;;
62056;SDS011;48016;50.284;18.860;2023-11-19T04:59:04;41.60;;;25.30;;
62056;SDS011;48016;50.284;18.860;2023-11-19T05:01:35;45.50;;;25.20;;
62056;SDS011;48016;50.284;18.860;2023-11-19T05:04:01;48.80;;;25.70;;
62056;SDS011;48016;50.284;18.860;2023-11-19T05:06:28;42.70;;;25.50;;
62056;SDS011;48016;50.284;18.860;2023-11-19T05:08:56;43.10;;;25.60;;
62056;SDS011;48016;50.284;18.860;2023-11-19T05:11:23;41.00;;;21.80;;
62056;SDS011;48016;50.284;18.860;2023-11-19T05:13:49;33.20;;;20.10;;
62056;SDS011;48016;50.284;18.860;2023-11-19T05:16:16;36.40;;;21.70;;
62056;SDS011;48016;50.284;18.860;2023-11-19T05:18:43;34.40;;;19.30;;
62056;SDS011;48016;50.284;18.860;2023-11-19T05:21:11;36.30;;;20.60;;
62056;SDS011;48016;50.284;18.860;2023-11-19T05:23:37;33.10;;;20.60;;
62056;SDS011;48016;50.284;18.860;2023-11-19T05:26:04;31.60;;;18.40;;
62056;SDS011;48016;50.284;18.860;2023-11-19T05:28:31;32.60;;;18.50;;
62056;SDS011;48016;50.284;18.860;2023-11-19T05:30:57;34.60;;;20.10;;
62056;SDS011;48016;50.284;18.860;2023-11-19T05:33:24;37.60;;;21.60;;
62056;SDS011;48016;50.284;18.860;2023-11-19T05:35:50;35.20;;;20.30;;
62056;SDS011;48016;50.284;18.860;2023-11-19T05:38:17;35.80;;;21.90;;
62056;SDS011;48016;50.284;18.860;2023-11-19T05:40:43;39.60;;;22.60;;
62056;SDS011;48016;50.284;18.860;2023-11-19T05:43:10;37.80;;;22.40;;
62056;SDS011;48016;50.284;18.860;2023-11-19T05:45:37;38.20;;;22.80;;
62056;SDS011;48016;50.284;18.860;2023-11-19T05:48:03;38.60;;;22.70;;
62056;SDS011;48016;50.284;18.860;2023-11-19T05:50:30;38.90;;;23.30;;
62056;SDS011;48016;50.284;18.860;2023-11-19T05:52:57;37.90;;;21.90;;
62056;SDS011;48016;50.284;18.860;2023-11-19T05:55:24;44.50;;;24.90;;
62056;SDS011;48016;50.284;18.860;2023-11-19T05:57:50;42.30;;;23.80;;
62056;SDS011;48016;50.284;18.860;2023-11-19T06:00:18;40.70;;;24.00;;
62056;SDS011;48016;50.284;18.860;2023-11-19T06:02:44;44.90;;;25.80;;
62056;SDS011;48016;50.284;18.860;2023-11-19T06:05:11;42.40;;;25.10;;
62056;SDS011;48016;50.284;18.860;2023-11-19T06:07:38;41.90;;;24.60;;
62056;SDS011;48016;50.284;18.860;2023-11-19T06:10:05;41.70;;;25.60;;
62056;SDS011;48016;50.284;18.860;2023-11-19T06:12:33;40.20;;;24.40;;
62056;SDS011;48016;50.284;18.860;2023-11-19T06:15:06;45.90;;;27.50;;
62056;SDS011;48016;50.284;18.860;2023-11-19T06:17:34;42.60;;;25.90;;
62056;SDS011;48016;50.284;18.860;2023-11-19T06:20:01;44.40;;;25.70;;
62056;SDS011;48016;50.284;18.860;2023-11-19T06:22:30;43.50;;;24.80;;
62056;SDS011;48016;50.284;18.860;2023-11-19T06:24:57;42.30;;;26.00;;
62056;SDS011;48016;50.284;18.860;2023-11-19T06:27:24;44.80;;;25.10;;
62056;SDS011;48016;50.284;18.860;2023-11-19T06:29:51;46.40;;;26.30;;
62056;SDS011;48016;50.284;18.860;2023-11-19T06:32:17;45.90;;;26.50;;
62056;SDS011;48016;50.284;18.860;2023-11-19T06:34:44;46.40;;;25.90;;
62056;SDS011;48016;50.284;18.860;2023-11-19T06:37:10;44.30;;;25.90;;
62056;SDS011;48016;50.284;18.860;2023-11-19T06:39:37;44.30;;;26.30;;
62056;SDS011;48016;50.284;18.860;2023-11-19T06:42:04;48.00;;;26.30;;
62056;SDS011;48016;50.284;18.860;2023-11-19T06:44:31;45.90;;;26.60;;
62056;SDS011;48016;50.284;18.860;2023-11-19T06:46:57;44.60;;;26.40;;
62056;SDS011;48016;50.284;18.860;2023-11-19T06:49:24;46.60;;;25.70;;
62056;SDS011;48016;50.284;18.860;2023-11-19T06:51:50;45.40;;;27.10;;
62056;SDS011;48016;50.284;18.860;2023-11-19T06:54:17;48.70;;;28.40;;
62056;SDS011;48016;50.284;18.860;2023-11-19T06:56:43;49.70;;;29.30;;
62056;SDS011;48016;50.284;18.860;2023-11-19T06:59:10;48.60;;;26.40;;
62056;SDS011;48016;50.284;18.860;2023-11-19T07:01:37;46.20;;;27.70;;
62056;SDS011;48016;50.284;18.860;2023-11-19T07:04:03;54.60;;;30.20;;
62056;SDS011;48016;50.284;18.860;2023-11-19T07:06:35;53.30;;;30.40;;
62056;SDS011;48016;50.284;18.860;2023-11-19T07:09:02;47.50;;;27.40;;
62056;SDS011;48016;50.284;18.860;2023-11-19T07:11:38;45.80;;;28.20;;
62056;SDS011;48016;50.284;18.860;2023-11-19T07:14:09;48.00;;;28.00;;
62056;SDS011;48016;50.284;18.860;2023-11-19T07:16:36;47.30;;;27.60;;
62056;SDS011;48016;50.284;18.860;2023-11-19T07:19:05;48.50;;;28.10;;
62056;SDS011;48016;50.284;18.860;2023-11-19T07:21:32;45.50;;;27.80;;
62056;SDS011;48016;50.284;18.860;2023-11-19T07:24:00;43.80;;;24.90;;
62056;SDS011;48016;50.284;18.860;2023-11-19T07:26:26;47.50;;;28.50;;
62056;SDS011;48016;50.284;18.860;2023-11-19T07:28:53;46.80;;;28.90;;
62056;SDS011;48016;50.284;18.860;2023-11-19T07:31:19;46.00;;;27.30;;
62056;SDS011;48016;50.284;18.860;2023-11-19T07:33:46;41.90;;;26.10;;
62056;SDS011;48016;50.284;18.860;2023-11-19T07:36:13;45.20;;;26.50;;
62056;SDS011;48016;50.284;18.860;2023-11-19T07:38:40;43.30;;;24.70;;
62056;SDS011;48016;50.284;18.860;2023-11-19T07:41:07;44.70;;;27.00;;
62056;SDS011;48016;50.284;18.860;2023-11-19T07:43:36;42.40;;;25.80;;
62056;SDS011;48016;50.284;18.860;2023-11-19T07:46:02;42.10;;;25.10;;
62056;SDS011;48016;50.284;18.860;2023-11-19T07:48:30;42.70;;;25.80;;
62056;SDS011;48016;50.284;18.860;2023-11-19T07:50:57;43.00;;;26.10;;
62056;SDS011;48016;50.284;18.860;2023-11-19T07:53:24;42.50;;;25.60;;
62056;SDS011;48016;50.284;18.860;2023-11-19T07:55:51;45.40;;;25.80;;
62056;SDS011;48016;50.284;18.860;2023-11-19T07:58:17;38.90;;;24.20;;
62056;SDS011;48016;50.284;18.860;2023-11-19T08:00:44;44.50;;;25.60;;
62056;SDS011;48016;50.284;18.860;2023-11-19T08:03:10;43.60;;;25.60;;
62056;SDS011;48016;50.284;18.860;2023-11-19T08:05:37;45.30;;;26.10;;
62056;SDS011;48016;50.284;18.860;2023-11-19T08:08:04;44.00;;;24.20;;
62056;SDS011;48016;50.284;18.860;2023-11-19T08:10:30;46.00;;;27.00;;
62056;SDS011;48016;50.284;18.860;2023-11-19T08:12:59;45.40;;;26.90;;
62056;SDS011;48016;50.284;18.860;2023-11-19T08:15:25;42.70;;;25.30;;
62056;SDS011;48016;50.284;18.860;2023-11-19T08:17:52;43.00;;;25.50;;
62056;SDS011;48016;50.284;18.860;2023-11-19T08:20:19;42.20;;;24.00;;
62056;SDS011;48016;50.284;18.860;2023-11-19T08:22:46;40.80;;;24.80;;
62056;SDS011;48016;50.284;18.860;2023-11-19T08:25:12;40.70;;;24.30;;
62056;SDS011;48016;50.284;18.860;2023-11-19T08:27:39;44.50;;;25.50;;
62056;SDS011;48016;50.284;18.860;2023-11-19T08:30:06;41.90;;;24.00;;
62056;SDS011;48016;50.284;18.860;2023-11-19T08:32:33;43.80;;;26.50;;
62056;SDS011;48016;50.284;18.860;2023-11-19T08:35:00;44.10;;;26.10;;
62056;SDS011;48016;50.284;18.860;2023-11-19T08:37:27;40.80;;;25.30;;
62056;SDS011;48016;50.284;18.860;2023-11-19T08:39:54;45.70;;;26.20;;
62056;SDS011;48016;50.284;18.860;2023-11-19T08:42:20;44.10;;;25.70;;
62056;SDS011;48016;50.284;18.860;2023-11-19T08:44:51;43.90;;;26.20;;
62056;SDS011;48016;50.284;18.860;2023-11-19T08:47:20;40.50;;;24.00;;
62056;SDS011;48016;50.284;18.860;2023-11-19T08:49:51;44.50;;;24.10;;
62056;SDS011;48016;50.284;18.860;2023-11-19T08:52:19;41.50;;;24.90;;
62056;SDS011;48016;50.284;18.860;2023-11-19T08:54:45;41.90;;;25.00;;
62056;SDS011;48016;50.284;18.860;2023-11-19T08:57:12;41.00;;;24.70;;
62056;SDS011;48016;50.284;18.860;2023-11-19T08:59:38;43.00;;;24.80;;
62056;SDS011;48016;50.284;18.860;2023-11-19T09:02:05;40.20;;;23.80;;
62056;SDS011;48016;50.284;18.860;2023-11-19T09:06:59;44.10;;;26.00;;
62056;SDS011;48016;50.284;18.860;2023-11-19T09:09:26;41.90;;;25.80;;
62056;SDS011;48016;50.284;18.860;2023-11-19T09:11:52;44.30;;;25.40;;
62056;SDS011;48016;50.284;18.860;2023-11-19T09:14:19;47.60;;;27.70;;
62056;SDS011;48016;50.284;18.860;2023-11-19T09:16:50;50.80;;;29.10;;
62056;SDS011;48016;50.284;18.860;2023-11-19T09:19:16;49.10;;;28.90;;
62056;SDS011;48016;50.284;18.860;2023-11-19T09:21:43;46.60;;;27.60;;
62056;SDS011;48016;50.284;18.860;2023-11-19T09:24:10;49.80;;;27.80;;
62056;SDS011;48016;50.284;18.860;2023-11-19T09:26:36;51.50;;;29.00;;
62056;SDS011;48016;50.284;18.860;2023-11-19T09:29:05;53.40;;;29.30;;
62056;SDS011;48016;50.284;18.860;2023-11-19T09:31:32;60.40;;;32.40;;
62056;SDS011;48016;50.284;18.860;2023-11-19T09:33:58;57.70;;;32.60;;
62056;SDS011;48016;50.284;18.860;2023-11-19T09:36:25;54.90;;;29.60;;
62056;SDS011;48016;50.284;18.860;2023-11-19T09:38:51;47.30;;;26.10;;
62056;SDS011;48016;50.284;18.860;2023-11-19T09:41:18;51.30;;;27.90;;
62056;SDS011;48016;50.284;18.860;2023-11-19T09:43:45;50.10;;;27.90;;
62056;SDS011;48016;50.284;18.860;2023-11-19T09:46:15;44.20;;;26.40;;
62056;SDS011;48016;50.284;18.860;2023-11-19T09:48:42;44.00;;;25.80;;
62056;SDS011;48016;50.284;18.860;2023-11-19T09:51:10;45.30;;;28.40;;
62056;SDS011;48016;50.284;18.860;2023-11-19T09:56:05;44.60;;;25.50;;
62056;SDS011;48016;50.284;18.860;2023-11-19T09:58:34;43.90;;;27.40;;
62056;SDS011;48016;50.284;18.860;2023-11-19T10:01:00;41.50;;;24.90;;
62056;SDS011;48016;50.284;18.860;2023-11-19T10:03:33;41.40;;;24.50;;
62056;SDS011;48016;50.284;18.860;2023-11-19T10:06:07;39.40;;;24.60;;
62056;SDS011;48016;50.284;18.860;2023-11-19T10:11:03;37.30;;;22.40;;
62056;SDS011;48016;50.284;18.860;2023-11-19T10:13:30;37.10;;;22.30;;
62056;SDS011;48016;50.284;18.860;2023-11-19T10:15:57;42.20;;;24.60;;
62056;SDS011;48016;50.284;18.860;2023-11-19T10:18:27;40.90;;;25.30;;
62056;SDS011;48016;50.284;18.860;2023-11-19T10:20:53;42.00;;;25.60;;
62056;SDS011;48016;50.284;18.860;2023-11-19T10:23:21;43.90;;;24.30;;
62056;SDS011;48016;50.284;18.860;2023-11-19T10:25:47;45.20;;;24.90;;
62056;SDS011;48016;50.284;18.860;2023-11-19T10:28:17;44.70;;;26.60;;
62056;SDS011;48016;50.284;18.860;2023-11-19T10:30:44;44.50;;;26.10;;
62056;SDS011;48016;50.284;18.860;2023-11-19T10:33:14;42.10;;;25.70;;
62056;SDS011;48016;50.284;18.860;2023-11-19T10:35:53;50.70;;;32.60;;
62056;SDS011;48016;50.284;18.860;2023-11-19T10:38:20;50.30;;;31.00;;
62056;SDS011;48016;50.284;18.860;2023-11-19T10:40:48;52.90;;;33.40;;
62056;SDS011;48016;50.284;18.860;2023-11-19T10:43:17;62.80;;;37.90;;
62056;SDS011;48016;50.284;18.860;2023-11-19T10:45:44;56.70;;;35.10;;
62056;SDS011;48016;50.284;18.860;2023-11-19T10:48:12;53.70;;;33.20;;
62056;SDS011;48016;50.284;18.860;2023-11-19T10:50:39;39.20;;;25.40;;
62056;SDS011;48016;50.284;18.860;2023-11-19T10:53:08;39.20;;;22.90;;
62056;SDS011;48016;50.284;18.860;2023-11-19T10:55:37;34.90;;;19.10;;
62056;SDS011;48016;50.284;18.860;2023-11-19T10:58:07;30.40;;;17.00;;
62056;SDS011;48016;50.284;18.860;2023-11-19T11:00:44;34.40;;;20.50;;
62056;SDS011;48016;50.284;18.860;2023-11-19T11:03:18;32.80;;;19.40;;
62056;SDS011;48016;50.284;18.860;2023-11-19T11:05:46;35.20;;;20.30;;
62056;SDS011;48016;50.284;18.860;2023-11-19T11:08:14;33.30;;;20.80;;
62056;SDS011;48016;50.284;18.860;2023-11-19T11:10:59;36.20;;;21.70;;
62056;SDS011;48016;50.284;18.860;2023-11-19T11:13:27;39.00;;;23.20;;
62056;SDS011;48016;50.284;18.860;2023-11-19T11:15:55;39.30;;;23.80;;
62056;SDS011;48016;50.284;18.860;2023-11-19T11:18:26;46.90;;;26.80;;
62056;SDS011;48016;50.284;18.860;2023-11-19T11:20:54;42.40;;;27.10;;
62056;SDS011;48016;50.284;18.860;2023-11-19T11:26:12;36.80;;;22.60;;
62056;SDS011;48016;50.284;18.860;2023-11-19T11:29:09;35.40;;;22.30;;
62056;SDS011;48016;50.284;18.860;2023-11-19T11:31:51;40.30;;;26.00;;
62056;SDS011;48016;50.284;18.860;2023-11-19T11:37:10;52.90;;;31.50;;
62056;SDS011;48016;50.284;18.860;2023-11-19T11:39:45;60.80;;;35.30;;
62056;SDS011;48016;50.284;18.860;2023-11-19T11:44:57;55.40;;;34.20;;
62056;SDS011;48016;50.284;18.860;2023-11-19T11:48:12;59.50;;;33.90;;
62056;SDS011;48016;50.284;18.860;2023-11-19T11:50:21;63.40;;;35.10;;
62056;SDS011;48016;50.284;18.860;2023-11-19T11:57:51;70.10;;;40.70;;
62056;SDS011;48016;50.284;18.860;2023-11-19T12:00:21;80.50;;;48.00;;
62056;SDS011;48016;50.284;18.860;2023-11-19T12:02:49;69.80;;;41.30;;
62056;SDS011;48016;50.284;18.860;2023-11-19T12:05:16;72.10;;;44.80;;
62056;SDS011;48016;50.284;18.860;2023-11-19T12:07:54;72.40;;;41.90;;
62056;SDS011;48016;50.284;18.860;2023-11-19T12:10:30;71.20;;;43.80;;
62056;SDS011;48016;50.284;18.860;2023-11-19T12:12:58;61.10;;;39.30;;
62056;SDS011;48016;50.284;18.860;2023-11-19T12:17:54;63.10;;;38.60;;
62056;SDS011;48016;50.284;18.860;2023-11-19T12:20:22;71.10;;;43.80;;
62056;SDS011;48016;50.284;18.860;2023-11-19T12:22:52;73.30;;;42.80;;
62056;SDS011;48016;50.284;18.860;2023-11-19T12:27:47;67.30;;;40.30;;
62056;SDS011;48016;50.284;18.860;2023-11-19T12:30:22;68.20;;;41.20;;
62056;SDS011;48016;50.284;18.860;2023-11-19T12:32:50;63.30;;;37.30;;
62056;SDS011;48016;50.284;18.860;2023-11-19T12:35:19;63.80;;;38.40;;
62056;SDS011;48016;50.284;18.860;2023-11-19T12:37:46;59.20;;;36.60;;
62056;SDS011;48016;50.284;18.860;2023-11-19T12:42:44;63.20;;;38.90;;
62056;SDS011;48016;50.284;18.860;2023-11-19T12:45:11;62.40;;;37.30;;
62056;SDS011;48016;50.284;18.860;2023-11-19T12:47:38;67.80;;;40.40;;
62056;SDS011;48016;50.284;18.860;2023-11-19T12:50:07;63.20;;;38.70;;
62056;SDS011;48016;50.284;18.860;2023-11-19T12:52:35;63.40;;;39.10;;
62056;SDS011;48016;50.284;18.860;2023-11-19T13:00:06;61.90;;;38.50;;
62056;SDS011;48016;50.284;18.860;2023-11-19T13:02:50;53.60;;;33.00;;
62056;SDS011;48016;50.284;18.860;2023-11-19T13:07:50;51.80;;;30.20;;
62056;SDS011;48016;50.284;18.860;2023-11-19T13:10:17;46.80;;;26.40;;
62056;SDS011;48016;50.284;18.860;2023-11-19T13:12:43;48.00;;;27.70;;
62056;SDS011;48016;50.284;18.860;2023-11-19T13:15:23;41.70;;;24.90;;
62056;SDS011;48016;50.284;18.860;2023-11-19T13:17:50;36.40;;;21.80;;
62056;SDS011;48016;50.284;18.860;2023-11-19T13:20:17;40.90;;;23.30;;
62056;SDS011;48016;50.284;18.860;2023-11-19T13:22:56;39.90;;;22.00;;
62056;SDS011;48016;50.284;18.860;2023-11-19T13:25:24;42.00;;;25.10;;
62056;SDS011;48016;50.284;18.860;2023-11-19T13:27:50;37.90;;;22.80;;
62056;SDS011;48016;50.284;18.860;2023-11-19T13:30:17;38.10;;;24.10;;
62056;SDS011;48016;50.284;18.860;2023-11-19T13:32:44;38.30;;;24.70;;
62056;SDS011;48016;50.284;18.860;2023-11-19T13:37:39;42.50;;;25.40;;
62056;SDS011;48016;50.284;18.860;2023-11-19T13:40:06;50.00;;;28.50;;
62056;SDS011;48016;50.284;18.860;2023-11-19T13:42:34;50.00;;;29.50;;
62056;SDS011;48016;50.284;18.860;2023-11-19T13:45:00;49.20;;;29.80;;
62056;SDS011;48016;50.284;18.860;2023-11-19T13:47:27;47.50;;;29.10;;
62056;SDS011;48016;50.284;18.860;2023-11-19T13:49:53;50.40;;;28.60;;
62056;SDS011;48016;50.284;18.860;2023-11-19T13:52:20;42.70;;;27.10;;
62056;SDS011;48016;50.284;18.860;2023-11-19T13:54:46;47.10;;;30.40;;
62056;SDS011;48016;50.284;18.860;2023-11-19T13:57:13;39.60;;;25.80;;
62056;SDS011;48016;50.284;18.860;2023-11-19T13:59:40;51.60;;;30.40;;
62056;SDS011;48016;50.284;18.860;2023-11-19T14:04:34;47.30;;;29.00;;
62056;SDS011;48016;50.284;18.860;2023-11-19T14:07:00;52.40;;;31.40;;
62056;SDS011;48016;50.284;18.860;2023-11-19T14:09:27;50.60;;;29.80;;
62056;SDS011;48016;50.284;18.860;2023-11-19T14:11:55;49.60;;;28.60;;
62056;SDS011;48016;50.284;18.860;2023-11-19T14:14:21;44.30;;;27.90;;
62056;SDS011;48016;50.284;18.860;2023-11-19T14:16:48;40.80;;;23.90;;
62056;SDS011;48016;50.284;18.860;2023-11-19T14:19:14;35.30;;;21.90;;
62056;SDS011;48016;50.284;18.860;2023-11-19T14:21:41;37.80;;;21.20;;
62056;SDS011;48016;50.284;18.860;2023-11-19T14:24:08;33.60;;;20.50;;
62056;SDS011;48016;50.284;18.860;2023-11-19T14:26:34;33.00;;;21.20;;
62056;SDS011;48016;50.284;18.860;2023-11-19T14:29:01;27.30;;;17.70;;
62056;SDS011;48016;50.284;18.860;2023-11-19T14:31:28;26.80;;;17.70;;
62056;SDS011;48016;50.284;18.860;2023-11-19T14:36:22;20.00;;;14.40;;
62056;SDS011;48016;50.284;18.860;2023-11-19T14:38:48;22.90;;;15.00;;
62056;SDS011;48016;50.284;18.860;2023-11-19T14:41:15;22.00;;;14.50;;
62056;SDS011;48016;50.284;18.860;2023-11-19T14:43:42;21.10;;;13.20;;
62056;SDS011;48016;50.284;18.860;2023-11-19T14:46:08;19.90;;;12.70;;
62056;SDS011;48016;50.284;18.860;2023-11-19T14:48:35;21.50;;;15.00;;
62056;SDS011;48016;50.284;18.860;2023-11-19T14:51:02;22.80;;;14.80;;
62056;SDS011;48016;50.284;18.860;2023-11-19T14:55:56;14.50;;;9.60;;
62056;SDS011;48016;50.284;18.860;2023-11-19T14:58:22;19.20;;;12.30;;
62056;SDS011;48016;50.284;18.860;2023-11-19T15:00:49;19.80;;;13.00;;
62056;SDS011;48016;50.284;18.860;2023-11-19T15:03:16;22.20;;;14.00;;
62056;SDS011;48016;50.284;18.860;2023-11-19T15:05:45;25.40;;;15.30;;
62056;SDS011;48016;50.284;18.860;2023-11-19T15:08:14;29.70;;;16.50;;
62056;SDS011;48016;50.284;18.860;2023-11-19T15:10:44;31.50;;;16.80;;